Предлагаем Вашему вниманию английскую версию страницы: AUTOTAF.ME UUWK - aviation weather forecast Kudinovo

AUTOTAF UUWK - авиапрогноз Кудиново

Сегодня рассвет 02:48 UTC, восход солнца 03:24 UTC,
местный полдень 09:27 UTC, заход солнца 15:30 UTC,
наступление темноты 16:06 UTC.

Краткий прогноз UUWK на 9 часов

AUTOTAF.ME UUWK 230800Z 2309/2318 22003MPS CAVOK    
  BECMG 2310/2312 SCT020  
  BECMG 2313/2315 NSC

Детальный прогноз UUWK на 24 часа

AUTOTAF.ME UUWK 230800Z 2309/2409 22003MPS 9999 SKC TX21/2312Z TN10/2403Z  
  BECMG 2310/2312 SCT020  
  BECMG 2313/2315 FEW340       
  BECMG 2407/2409 18003MPS

Подробный табличный прогноз

Время (UTC) miniAUTOTAF на 3 ч WX FZLVL
M AGL
ICE TURB Т
(°С)
Тd
(°С)
f(%) QNH
(гПа)
WIND/T
06 VRB02MPS 9999 SKC 3600 13 11 83 1017 ...
09 22003MPS 9999 SKC 3600 MOD SFC/FL30 19 12 65 1016 ...
12 22005MPS 9999 SCT020 3600 MOD SFC/FL30 21 13 60 1016 ...
15 21003MPS 9999 FEW340 3600 MOD FL30/FL40 17 13 79 1015 ...
18 VRB02MPS 9999 BKN330 3600 14 12 87 1016 ...
21 VRB02MPS 9999 OVC300 3600 12 11 89 1016 ...
24.09.2020
00 VRB02MPS 9999 OVC300 3600 11 9 86 1017 ...
03 VRB02MPS 9999 OVC260 3300 10 8 84 1017 ...
06 VRB02MPS 9999 OVC250 3300 13 8 72 1017 ...
09 18003MPS 9999 FEW210 3300 18 9 56 1017 ...
12 18006MPS 9999 SCT210 3300 MOD SFC/FL30 20 10 52 1017 ...
15 VRB02MPS 9999 FEW210 3300 MOD FL30/FL40 16 11 70 1017 ...
18 VRB02MPS 9999 SCT200 3300 13 10 79 1017 ...
21 VRB02MPS 9999 SCT210 3300 12 8 81 1018 ...
25.09.2020
00 VRB02MPS 9999 FEW210 3300 11 8 82 1018 ...
03 VRB02MPS 9999 SCT300 3300 10 7 83 1018 ...


Широта 55.02335°, долгота 36.24422°, высота 192 м абс.
Средняя высота рельефа местности 191 м абс.
Прогнозы обновляются четыре раза в сутки: в 02, 08, 14, 20 ч всемирного времени.


Выбрать прогноз по другой модели Кудиново
Онлайн-сводка гроз по Кудиново (для РФ и ближнего зарубежья)
Карта фактических гроз в окрестностях Кудиново
Динамические прогностические карты (ventusky.com)
Прогностическая карта высоты нижней границы облаков по Кудиново (windy.com)
Выбрать другой город

Прогноз предназначен для личного научно-познавательного использования частными лицами
и не предназначен для принятия важных решений и выполнения реальных полётов воздушных судов

При копировании или ином использовании любых материалов данного сайта ссылка на © meteocenter.asia обязательна.

0.4/0.8